• Join FlightAware (Why Join?)
  • Login
  • US Flag 
05:42PM EDT


 

Airport Tracker/Info


-or-


 

Live Flight TrackerFlight Track Log ✈ EJA922 ✈ 11-Mar-2014 ✈ KOCF - KPHL

Flight Track Log - Related Links

Times and Time Zones

All times are in EDT time to prevent confusion due to time zone crossing. See the EJA922 flight status page for this flight to view local times or setup timezone preferences in your user account.

Time Position Orientation Groundspeed Altitude Reporting Facility
EDT Latitude Longitude Course Direction KTS MPH feet Rate Location/Type
07:45AM 29.1833 -82.2267 360° North 160 184 900  Level Jacksonville Center
07:45AM 29.1917 -82.2267 360° North 167 192 1,400 2,820 Climbing Jacksonville Center
07:46AM 29.2522 -82.2094 14° North 244 281 4,400 2,880 Climbing Jacksonville Center
07:47AM 29.3436 -82.1469 31° Northeast 285 328 8,400 2,580 Climbing Jacksonville Center
07:48AM 29.4164 -82.1011 29° Northeast 290 334 10,600 2,220 Climbing Jacksonville Center
07:49AM 29.4997 -82.0478 29° Northeast 307 353 12,900 2,160 Climbing Jacksonville Center
07:50AM 29.5933 -81.9944 26° Northeast 340 391 15,000 1,860 Climbing Jacksonville Center
07:51AM 29.6886 -81.9292 31° Northeast 367 422 16,700 1,800 Climbing Jacksonville Center
07:52AM 29.7906 -81.8636 29° Northeast 395 455 18,700 1,800 Climbing Jacksonville Center
07:53AM 29.8944 -81.7978 29° Northeast 409 471 20,400 1,620 Climbing Jacksonville Center
07:54AM 30.0022 -81.7294 29° Northeast 422 486 22,000 1,500 Climbing Jacksonville Center
07:55AM 30.1103 -81.6583 30° Northeast 432 497 23,400 1,500 Climbing Jacksonville Center
07:56AM 30.2222 -81.5847 30° Northeast 442 509 25,100 1,620 Climbing Jacksonville Center
07:57AM 30.3261 -81.5233 27° Northeast 455 524 26,700 1,500 Climbing Jacksonville Center
07:58AM 30.4531 -81.4997 North 455 524 28,200 1,500 Climbing Jacksonville Center
07:59AM 30.5825 -81.4906 North 455 524 29,700 1,560 Climbing Jacksonville Center
08:00AM 30.7158 -81.4789 North 466 536 31,400 1,620 Climbing Jacksonville Center
08:01AM 30.8453 -81.4697 North 466 536 33,000 1,740 Climbing Jacksonville Center
08:02AM 30.9767 -81.4581 North 466 536 34,900 1,800 Climbing Jacksonville Center
08:03AM 31.1081 -81.4489 North 471 542 36,700 1,800 Climbing Jacksonville Center
08:04AM 31.2394 -81.4394 North 471 542 38,500 1,740 Climbing Jacksonville Center
08:05AM 31.3622 -81.3964 17° North 466 536 40,200 1,200 Climbing Jacksonville Center
08:06AM 31.5033 -81.3161 26° Northeast 478 550 41,000 360 Climbing Jacksonville Center
08:07AM 31.6172 -81.2458 28° Northeast 507 583 41,000  Level Jacksonville Center
08:08AM 31.7664 -81.1600 26° Northeast 525 604 41,000  Level Jacksonville Center
08:09AM 31.9008 -81.0769 28° Northeast 536 617 41,000  Level Jacksonville Center
08:10AM 32.0208 -81.0033 27° Northeast 544 626 41,000  Level Jacksonville Center
08:11AM 32.1742 -80.9167 26° Northeast 544 626 41,000  Level Jacksonville Center
08:12AM 32.2961 -80.8478 26° Northeast 544 626 41,000  Level Jacksonville Center
08:13AM 32.4428 -80.7583 27° Northeast 538 619 41,000  Level Jacksonville Center
08:14AM 32.5772 -80.6764 27° Northeast 538 619 41,000  Level Jacksonville Center
08:15AM 32.7156 -80.5939 27° Northeast 545 627 41,000  Level Jacksonville Center
08:16AM 32.8519 -80.5139 26° Northeast 545 627 41,000  Level Jacksonville Center
08:17AM 32.9881 -80.4333 26° Northeast 545 627 41,000  Level Jacksonville Center
08:18AM 33.1139 -80.3506 29° Northeast 556 640 41,000  Level Jacksonville Center
08:19AM 33.2542 -80.2697 26° Northeast 551 634 41,000  Level Jacksonville Center
08:20AM 33.3900 -80.1836 28° Northeast 551 634 41,000  Level Jacksonville Center
08:21AM 33.5239 -80.1097 25° Northeast 540 621 41,000  Level Jacksonville Center
08:22AM 33.6622 -80.0356 24° Northeast 540 621 41,000  Level Jacksonville Center
08:23AM 33.7981 -79.9611 24° Northeast 540 621 41,000  Level Jacksonville Center
08:24AM 33.9383 -79.8839 25° Northeast 540 621 41,000  Level Jacksonville Center
08:25AM 34.0739 -79.8039 26° Northeast 540 621 41,000  Level Jacksonville Center
08:26AM 34.2119 -79.7311 24° Northeast 540 621 41,000  Level Jacksonville Center
08:27AM 34.3600 -79.6453 26° Northeast 535 616 41,000  Level Jacksonville Center
08:29AM 34.5339 -79.5525 24° Northeast 527 606 41,000  Level Washington Center
08:30AM 34.6700 -79.4733 26° Northeast 527 606 41,000  Level Washington Center
08:31AM 34.8081 -79.3989 24° Northeast 533 613 41,000  Level Washington Center
08:32AM 34.9461 -79.3217 25° Northeast 533 613 41,000  Level Washington Center
08:33AM 35.0842 -79.2444 25° Northeast 528 608 41,000  Level Washington Center
08:34AM 35.2242 -79.1694 24° Northeast 528 608 41,000  Level Washington Center
08:35AM 35.3769 -79.0819 25° Northeast 533 613 41,000  Level Washington Center
08:36AM 35.5000 -79.0133 24° Northeast 533 613 41,000  Level Washington Center
08:37AM 35.6378 -78.9375 24° Northeast 533 613 41,000  Level Washington Center
08:38AM 35.7736 -78.8586 25° Northeast 528 608 41,000  Level Washington Center
08:39AM 35.9092 -78.7797 25° Northeast 528 608 41,000  Level Washington Center
08:40AM 36.0594 -78.6958 24° Northeast 528 608 41,000  Level Washington Center
08:41AM 36.1950 -78.6161 25° Northeast 528 608 41,000  Level Washington Center
08:42AM 36.3306 -78.5364 25° Northeast 528 608 41,000  Level Washington Center
08:43AM 36.4681 -78.4589 24° Northeast 528 608 41,000  Level Washington Center
08:44AM 36.6056 -78.3761 26° Northeast 528 608 41,000  Level Washington Center
08:45AM 36.7242 -78.3050 26° Northeast 528 608 41,000  Level Washington Center
08:46AM 36.8614 -78.2269 24° Northeast 528 608 41,000  Level Washington Center
08:47AM 36.9842 -78.1531 26° Northeast 533 613 41,000 -900 Level Washington Center
08:48AM 37.1214 -78.0717 25° Northeast 513 590 39,200 -2,220 Descending Washington Center
08:49AM 37.2439 -78.0000 25° Northeast 494 568 36,600 -2,580 Descending Washington Center
08:50AM 37.3706 -77.9228 26° Northeast 489 563 34,000 -2,820 Descending Washington Center
08:51AM 37.4992 -77.8456 25° Northeast 489 563 31,000 -1,560 Descending Washington Center
08:52AM 37.6242 -77.7419 33° Northeast 508 585 31,000 -240 Level Washington Center
08:53AM 37.7472 -77.6297 36° Northeast 532 612 30,600 -1,200 Descending Washington Center
08:54AM 37.8700 -77.5172 36° Northeast 545 627 28,600 -2,040 Descending Washington Center
08:55AM 37.9864 -77.4122 35° Northeast 539 620 26,600 -2,040 Descending Washington Center
08:56AM 38.1025 -77.3069 35° Northeast 527 606 24,500 -1,320 Descending Washington Center
08:57AM 38.2125 -77.2064 36° Northeast 507 583 24,000 -300 Descending Washington Center
08:58AM 38.3200 -77.1056 36° Northeast 489 563 24,000  Level Washington Center
08:59AM 38.4275 -77.0069 36° Northeast 477 549 24,000  Level Washington Center
09:00AM 38.5331 -76.9081 36° Northeast 477 549 24,000  Level Washington Center
09:01AM 38.6403 -76.8089 36° Northeast 477 549 24,000 -180 Level Washington Center
09:02AM 38.7208 -76.6694 53° Northeast 467 537 23,700 -1,200 Descending Washington Center
09:03AM 38.7578 -76.4969 75° East 475 547 21,700 -2,160 Descending Washington Center
09:04AM 38.7922 -76.3267 75° East 475 547 19,500 -2,580 Descending Washington Center
09:05AM 38.8286 -76.1486 75° East 475 547 16,600 -2,220 Descending Washington Center
09:06AM 38.8606 -75.9942 75° East 458 527 15,000 -840 Descending Washington Center
09:07AM 38.9006 -75.8425 71° East 445 512 15,000 -660 Level Washington Center
09:09AM 39.1167 -75.6667 32° Northeast 350 403 12,900 -1,140 Descending Philadelphia TRACON
09:10AM 39.2167 -75.6667 360° North 305 351 11,400 -1,560 Descending Philadelphia TRACON
09:11AM 39.2833 -75.6500 11° North 290 334 10,000 -1,620 Descending Philadelphia TRACON
09:12AM 39.3667 -75.5833 32° Northeast 300 345 8,400 -1,320 Descending Philadelphia TRACON
09:13AM 39.4167 -75.5000 52° Northeast 312 359 7,300 -720 Descending Philadelphia TRACON
09:14AM 39.4667 -75.4167 52° Northeast 297 342 7,000 -540 Descending Philadelphia TRACON
09:15AM 39.5000 -75.3167 67° East 290 334 6,300 -1,140 Descending Philadelphia TRACON
09:16AM 39.5500 -75.2667 38° Northeast 271 312 4,900 -1,560 Descending Philadelphia TRACON
09:17AM 39.6167 -75.2167 30° Northeast 235 270 3,400 -1,500 Descending Philadelphia TRACON
09:18AM 39.6667 -75.2000 14° North 225 259 2,100 -780 Descending Philadelphia TRACON
09:19AM 39.7167 -75.1833 14° North 185 213 2,000  Descending Philadelphia TRACON
09:20AM 39.7667 -75.1833 360° North 174 200 2,100 -240 Climbing Philadelphia TRACON
09:21AM 39.8000 -75.2000 339° North 117 135 1,600 -600 Descending Philadelphia TRACON
09:22AM 39.8333 -75.2167 339° North 118 136 900 -780 Descending Philadelphia TRACON
09:23AM 39.8667 -75.2333 339° North 130 150 100 -840 Descending Philadelphia TRACON